METAR - Iceland

Last updated 04.02.2023 - at. 16:11

SIGMET for the last six hours

BIRD SIGMET U01 VALID 041610/042000 BIRK- BIRD REYKJAVIK CTA SEV TURB OBS AT 1554Z WI N6340 W04645 - N6550 W04615 - N6630 W03205 - N6320 W03925 - N6340 W04645 FL290/380 STNR NC

METAR from the last three hours

From October 1 2021, runway conditions will not appear in METAR messages.
Instead ISAVIA will show SNOWTAM here: SNOWTAM | Isavia.

AerodromeTimeMessage
BIAR2023-02-04 16.00METAR BIAR 041600Z 21016G32KT 160V230 9999 FEW019 BKN042 01/M09 Q1004
BIAR2023-02-04 15.00METAR BIAR 041500Z 19011KT 160V230 9999 FEW020 BKN048 01/M10 Q1003
BIAR2023-02-04 14.00METAR BIAR 041400Z 20012KT 9999 SCT047 00/M08 Q1003
BIEG2023-02-04 16.00METAR BIEG 041600Z 20009KT 9999 FEW050 M01/M07 Q1008
BIEG2023-02-04 15.00METAR BIEG 041500Z 22015KT CAVOK 00/M07 Q1007
BIEG2023-02-04 14.00METAR BIEG 041400Z 23013KT 9999 FEW040 SCT095 01/M07 Q1006
BIGJ2023-02-04 15.00METAR BIGJ 041500Z 22031G43KT 7000 BKN020 M00/M04 Q0998
BIGJ2023-02-04 14.40METAR BIGJ 041440Z 22026G36KT 7000 BKN020 M00/M03 Q0998
BIGJ2023-02-04 14.00METAR BIGJ 041400Z 22030G40KT 1000 VV006 M00/M04 Q0998
BIGJ2023-02-04 13.12METAR BIGJ 041312Z 22022KT 9999 SCT020 M00/M05 Q0997
BIHN2023-02-04 15.00METAR BIHN 041500Z 23008KT 9999 SCT040 M01/M05 Q1009
BIHN2023-02-04 14.21METAR BIHN 041421Z 26005KT 9999 FEW040 M00/M05 Q1009
BIIS2023-02-04 15.00METAR BIIS 041500Z 23023G35KT 2000 SN VV006 00/M06 Q0997
BIIS2023-02-04 14.00METAR BIIS 041400Z 22016KT 1500 SN VV005 00/M04 Q0995
BIKF2023-02-04 16.00METAR BIKF 041600Z 24024KT 9999 VCSH FEW016CB SCT067 00/M03 Q1007
BIKF2023-02-04 15.30METAR BIKF 041530Z 25030G41KT 4000 -SHGS SCT006CB BKN025 M01/M02 Q1007
BIKF2023-02-04 15.00METAR BIKF 041500Z 24027KT 9999 VCSH SCT007CB 01/M03 Q1006
BIKF2023-02-04 14.30METAR BIKF 041430Z 24028G46KT 2000 R19/P1500D SHGS SCT016CB BKN048 BKN095 M01/M03 Q1005
BIKF2023-02-04 14.00METAR BIKF 041400Z 24030G41KT 9999 VCSH FEW004 SCT016CB BKN032 00/M03 Q1004 REGS
BIKF2023-02-04 13.30METAR BIKF 041330Z 23029G40KT 9999 VCSH FEW004 SCT016CB BKN090 00/M02 Q1003
BIRK2023-02-04 16.00METAR BIRK 041600Z 26022G32KT 2500 -SHSN FEW007CB BKN015 BKN026 M01/M01 Q1008
BIRK2023-02-04 15.42SPECI BIRK 041542Z 26023G33KT 0600 R19/1200N SHGS BKN012CB 00/M02 Q1007
BIRK2023-02-04 15.23SPECI BIRK 041523Z 22017KT 9999 VCSH SCT009CB BKN094 00/M02 Q1007 RESHGR
BIRK2023-02-04 15.00METAR BIRK 041500Z 23020G44KT 0300 R19/0750N +SHGR VV013 01/M03 Q1006
BIRK2023-02-04 14.14SPECI BIRK 041414Z 22020G39KT 0500 SHSN VV006 00/M02 Q1005
BIRK2023-02-04 14.00METAR COR BIRK 041400Z 21019KT 9999 VCSH FEW010CB SCT041 BKN080 00/M02 Q1005
BIRK2023-02-04 14.00METAR BIRK 041400Z 22019KT 9999 FEW010CB SCT041 BKN080 00/M02 Q1005
BIRK2023-02-04 13.25SPECI BIRK 041325Z 23024G47KT 0500 SHSN VV011 01/M05 Q1004
BIVM2023-02-04 16.00METAR BIVM 041600Z 26022G34KT 7000 VCFG BKN020CB 00/M00 Q1011 RESHSN
BIVM2023-02-04 15.00METAR BIVM 041500Z 25030G40KT 7000 VCFG BKN018CB 00/M01 Q1009 RESHSN
BIVM2023-02-04 14.00METAR BIVM 041400Z 25030G40KT 7000 VCFG FEW006 BKN018CB 01/M01 Q1008 RESHSN





Other related web sites


This website is built with Eplica CMS